createdAt,value
2019-02-16T19:40:14.752Z,3.12
2019-02-16T19:43:15.290Z,3.25
2019-02-16T19:49:38.386Z,3.27
2019-02-16T19:52:22.206Z,3.18
2019-02-16T19:55:12.510Z,3.32
2019-02-16T19:58:04.044Z,3.29
2019-02-16T20:00:45.215Z,2.96
2019-02-16T20:03:35.157Z,2.52
2019-02-16T20:06:29.481Z,2.52
2019-02-16T20:09:23.643Z,2.54
2019-02-16T20:12:21.246Z,2.57
2019-02-16T20:15:11.499Z,2.50
2019-02-16T20:18:06.294Z,2.46
2019-02-16T20:20:57.874Z,2.62
2019-02-16T20:23:54.104Z,2.61
2019-02-16T20:26:45.593Z,2.46
2019-02-16T20:29:32.953Z,2.45
2019-02-16T20:32:24.520Z,2.22
2019-02-16T20:35:31.121Z,2.19
2019-02-16T20:38:28.983Z,2.28
2019-02-16T20:41:12.121Z,2.36
2019-02-16T20:43:57.572Z,2.40
2019-02-16T20:46:35.563Z,2.64
2019-02-16T20:49:30.003Z,2.55
2019-02-16T20:52:18.245Z,2.26
2019-02-16T20:55:09.822Z,2.04
2019-02-16T20:58:04.345Z,1.94
2019-02-16T21:00:52.053Z,2.16
2019-02-16T21:03:42.559Z,1.92
2019-02-16T21:06:29.958Z,1.73
2019-02-16T21:09:14.880Z,1.62
2019-02-16T21:12:01.862Z,1.64
2019-02-16T21:15:08.446Z,1.83
2019-02-16T21:17:59.844Z,1.93
2019-02-16T21:20:50.528Z,2.02
2019-02-16T21:23:48.218Z,2.33
2019-02-16T21:26:36.620Z,2.42
2019-02-16T21:29:14.686Z,1.99
2019-02-16T21:32:16.287Z,1.70
2019-02-16T21:35:23.040Z,1.46
2019-02-16T21:38:14.671Z,1.44
2019-02-16T21:41:08.924Z,1.64
2019-02-16T21:43:58.941Z,1.47
2019-02-16T21:46:50.439Z,1.35
2019-02-16T21:49:40.770Z,1.49
2019-02-16T21:52:23.776Z,1.46
2019-02-16T21:55:21.155Z,1.38
2019-02-16T21:58:08.365Z,1.60
2019-02-16T22:01:03.191Z,1.86
2019-02-16T22:03:53.430Z,1.96
2019-02-16T22:07:00.033Z,2.05
2019-02-16T22:09:45.157Z,1.87
2019-02-16T22:12:41.365Z,2.00
2019-02-16T22:15:13.935Z,1.61
2019-02-16T22:17:46.589Z,1.35
2019-02-16T22:20:19.163Z,1.43
2019-02-16T22:22:51.870Z,1.48
2019-02-16T22:25:24.455Z,1.40
2019-02-16T22:27:57.320Z,1.18
2019-02-16T22:30:30.289Z,1.09
2019-02-16T22:33:03.927Z,1.13
2019-02-16T22:35:36.672Z,1.29
2019-02-16T22:38:12.319Z,1.14
2019-02-16T22:40:45.017Z,1.02
2019-02-16T22:43:17.720Z,0.99
2019-02-16T22:45:50.455Z,1.15
2019-02-16T22:48:25.815Z,1.05
2019-02-16T22:50:58.501Z,0.88
2019-02-16T22:53:31.259Z,0.82
2019-02-16T22:56:03.857Z,0.91
2019-02-16T22:58:36.514Z,1.12
2019-02-16T23:01:09.450Z,1.40
2019-02-16T23:03:43.715Z,1.41
2019-02-16T23:06:16.275Z,1.17
2019-02-16T23:08:49.063Z,1.09
2019-02-16T23:11:21.715Z,0.94
2019-02-16T23:13:54.358Z,0.94
2019-02-16T23:16:27.048Z,0.74
2019-02-16T23:18:59.685Z,0.67
2019-02-16T23:21:32.312Z,0.55
2019-02-16T23:24:04.982Z,0.52
2019-02-16T23:26:37.609Z,0.51
2019-02-16T23:29:09.533Z,0.60
2019-02-16T23:31:45.269Z,0.57
2019-02-16T23:34:17.899Z,0.61
2019-02-16T23:36:50.629Z,0.60
2019-02-16T23:39:23.319Z,0.67
2019-02-16T23:41:55.958Z,0.73
2019-02-16T23:44:28.560Z,0.55
2019-02-16T23:47:01.261Z,0.37
2019-02-16T23:49:33.892Z,0.13
2019-02-16T23:52:06.767Z,0.22
2019-02-16T23:54:39.416Z,0.38
2019-02-16T23:57:12.019Z,0.30
2019-02-16T23:59:44.730Z,0.03
